sensor_id;sensor_type;location;lat;lon;timestamp;P1;durP1;ratioP1;P2;durP2;ratioP2
77148;SDS011;66122;47.130;16.844;2024-03-25T00:05:36;0.20;;;0.10;;
77148;SDS011;66122;47.130;16.844;2024-03-25T00:15:38;0.30;;;0.10;;
77148;SDS011;66122;47.130;16.844;2024-03-25T00:25:40;0.30;;;0.10;;
77148;SDS011;66122;47.130;16.844;2024-03-25T00:35:42;0.32;;;0.20;;
77148;SDS011;66122;47.130;16.844;2024-03-25T00:45:45;0.30;;;0.10;;
77148;SDS011;66122;47.130;16.844;2024-03-25T00:55:46;0.20;;;0.10;;
77148;SDS011;66122;47.130;16.844;2024-03-25T01:05:48;0.20;;;0.10;;
77148;SDS011;66122;47.130;16.844;2024-03-25T01:15:49;0.30;;;0.17;;
77148;SDS011;66122;47.130;16.844;2024-03-25T01:25:51;0.30;;;0.13;;
77148;SDS011;66122;47.130;16.844;2024-03-25T01:35:53;0.20;;;0.10;;
77148;SDS011;66122;47.130;16.844;2024-03-25T01:45:57;0.20;;;0.10;;
77148;SDS011;66122;47.130;16.844;2024-03-25T01:55:58;0.20;;;0.10;;
77148;SDS011;66122;47.130;16.844;2024-03-25T02:06:02;0.20;;;0.10;;
77148;SDS011;66122;47.130;16.844;2024-03-25T02:16:07;0.30;;;0.20;;
77148;SDS011;66122;47.130;16.844;2024-03-25T02:26:08;0.20;;;0.10;;
77148;SDS011;66122;47.130;16.844;2024-03-25T02:36:10;0.30;;;0.20;;
77148;SDS011;66122;47.130;16.844;2024-03-25T02:46:13;0.32;;;0.20;;
77148;SDS011;66122;47.130;16.844;2024-03-25T02:56:15;0.30;;;0.13;;
77148;SDS011;66122;47.130;16.844;2024-03-25T03:06:16;0.30;;;0.10;;
77148;SDS011;66122;47.130;16.844;2024-03-25T03:16:17;0.30;;;0.10;;
77148;SDS011;66122;47.130;16.844;2024-03-25T03:26:19;0.28;;;0.10;;
77148;SDS011;66122;47.130;16.844;2024-03-25T03:36:22;0.30;;;0.20;;
77148;SDS011;66122;47.130;16.844;2024-03-25T03:46:23;0.20;;;0.10;;
77148;SDS011;66122;47.130;16.844;2024-03-25T03:56:25;0.20;;;0.10;;
77148;SDS011;66122;47.130;16.844;2024-03-25T04:06:27;0.30;;;0.20;;
77148;SDS011;66122;47.130;16.844;2024-03-25T04:16:28;0.30;;;0.10;;
77148;SDS011;66122;47.130;16.844;2024-03-25T04:26:31;0.40;;;0.22;;
77148;SDS011;66122;47.130;16.844;2024-03-25T04:36:33;0.40;;;0.25;;
77148;SDS011;66122;47.130;16.844;2024-03-25T04:46:34;0.30;;;0.10;;
77148;SDS011;66122;47.130;16.844;2024-03-25T04:56:36;0.30;;;0.10;;
77148;SDS011;66122;47.130;16.844;2024-03-25T05:06:37;0.20;;;0.10;;
77148;SDS011;66122;47.130;16.844;2024-03-25T05:16:39;0.30;;;0.10;;
77148;SDS011;66122;47.130;16.844;2024-03-25T05:26:40;0.30;;;0.10;;
77148;SDS011;66122;47.130;16.844;2024-03-25T05:36:42;0.30;;;0.13;;
77148;SDS011;66122;47.130;16.844;2024-03-25T05:46:44;0.30;;;0.20;;
77148;SDS011;66122;47.130;16.844;2024-03-25T05:56:47;0.40;;;0.20;;
77148;SDS011;66122;47.130;16.844;2024-03-25T06:06:49;0.30;;;0.10;;
77148;SDS011;66122;47.130;16.844;2024-03-25T06:16:51;0.30;;;0.17;;
77148;SDS011;66122;47.130;16.844;2024-03-25T06:26:52;0.30;;;0.10;;
77148;SDS011;66122;47.130;16.844;2024-03-25T06:36:54;0.27;;;0.10;;
77148;SDS011;66122;47.130;16.844;2024-03-25T06:46:55;0.30;;;0.10;;
77148;SDS011;66122;47.130;16.844;2024-03-25T06:56:57;0.30;;;0.20;;
77148;SDS011;66122;47.130;16.844;2024-03-25T07:06:59;0.40;;;0.20;;
77148;SDS011;66122;47.130;16.844;2024-03-25T07:17:01;0.30;;;0.20;;
77148;SDS011;66122;47.130;16.844;2024-03-25T07:27:02;0.30;;;0.20;;
77148;SDS011;66122;47.130;16.844;2024-03-25T07:37:04;0.50;;;0.40;;
77148;SDS011;66122;47.130;16.844;2024-03-25T07:47:05;0.40;;;0.20;;
77148;SDS011;66122;47.130;16.844;2024-03-25T07:57:08;0.50;;;0.40;;
77148;SDS011;66122;47.130;16.844;2024-03-25T08:07:10;0.53;;;0.47;;
77148;SDS011;66122;47.130;16.844;2024-03-25T08:17:12;0.50;;;0.33;;
77148;SDS011;66122;47.130;16.844;2024-03-25T08:27:15;0.40;;;0.20;;
77148;SDS011;66122;47.130;16.844;2024-03-25T08:37:17;0.50;;;0.30;;
77148;SDS011;66122;47.130;16.844;2024-03-25T08:47:21;0.40;;;0.30;;
77148;SDS011;66122;47.130;16.844;2024-03-25T08:57:45;0.60;;;0.50;;
77148;SDS011;66122;47.130;16.844;2024-03-25T09:07:50;0.50;;;0.40;;
77148;SDS011;66122;47.130;16.844;2024-03-25T09:17:54;0.50;;;0.40;;
77148;SDS011;66122;47.130;16.844;2024-03-25T09:28:02;0.52;;;0.40;;
77148;SDS011;66122;47.130;16.844;2024-03-25T09:38:04;0.60;;;0.40;;
77148;SDS011;66122;47.130;16.844;2024-03-25T09:48:06;0.53;;;0.40;;
77148;SDS011;66122;47.130;16.844;2024-03-25T09:58:09;0.50;;;0.40;;
77148;SDS011;66122;47.130;16.844;2024-03-25T10:08:13;0.50;;;0.30;;
77148;SDS011;66122;47.130;16.844;2024-03-25T10:18:15;0.67;;;0.60;;
77148;SDS011;66122;47.130;16.844;2024-03-25T10:28:16;0.70;;;0.60;;
77148;SDS011;66122;47.130;16.844;2024-03-25T10:38:18;0.47;;;0.30;;
77148;SDS011;66122;47.130;16.844;2024-03-25T10:48:24;0.50;;;0.30;;
77148;SDS011;66122;47.130;16.844;2024-03-25T10:58:30;0.50;;;0.30;;
77148;SDS011;66122;47.130;16.844;2024-03-25T11:08:32;0.60;;;0.50;;
77148;SDS011;66122;47.130;16.844;2024-03-25T11:29:15;0.50;;;0.33;;
77148;SDS011;66122;47.130;16.844;2024-03-25T11:39:17;0.60;;;0.50;;
77148;SDS011;66122;47.130;16.844;2024-03-25T11:49:22;0.63;;;0.52;;
77148;SDS011;66122;47.130;16.844;2024-03-25T11:59:24;0.60;;;0.50;;
77148;SDS011;66122;47.130;16.844;2024-03-25T12:09:26;0.43;;;0.23;;
77148;SDS011;66122;47.130;16.844;2024-03-25T12:30:05;0.50;;;0.30;;
77148;SDS011;66122;47.130;16.844;2024-03-25T12:40:09;0.80;;;0.77;;
77148;SDS011;66122;47.130;16.844;2024-03-25T12:50:12;0.70;;;0.67;;
77148;SDS011;66122;47.130;16.844;2024-03-25T13:00:15;0.60;;;0.50;;
77148;SDS011;66122;47.130;16.844;2024-03-25T13:10:20;0.50;;;0.30;;
77148;SDS011;66122;47.130;16.844;2024-03-25T13:20:23;0.50;;;0.30;;
77148;SDS011;66122;47.130;16.844;2024-03-25T13:30:25;0.70;;;0.60;;
77148;SDS011;66122;47.130;16.844;2024-03-25T13:40:28;0.50;;;0.30;;
77148;SDS011;66122;47.130;16.844;2024-03-25T13:50:29;1.00;;;0.90;;
77148;SDS011;66122;47.130;16.844;2024-03-25T14:00:31;0.60;;;0.40;;
77148;SDS011;66122;47.130;16.844;2024-03-25T14:10:34;0.70;;;0.70;;
77148;SDS011;66122;47.130;16.844;2024-03-25T14:20:36;0.73;;;0.65;;
77148;SDS011;66122;47.130;16.844;2024-03-25T14:30:38;1.00;;;0.90;;
77148;SDS011;66122;47.130;16.844;2024-03-25T14:40:40;0.70;;;0.60;;
77148;SDS011;66122;47.130;16.844;2024-03-25T14:50:42;0.60;;;0.50;;
77148;SDS011;66122;47.130;16.844;2024-03-25T15:00:43;0.60;;;0.40;;
77148;SDS011;66122;47.130;16.844;2024-03-25T15:10:46;0.70;;;0.60;;
77148;SDS011;66122;47.130;16.844;2024-03-25T15:20:48;0.50;;;0.30;;
77148;SDS011;66122;47.130;16.844;2024-03-25T15:31:00;0.55;;;0.45;;
77148;SDS011;66122;47.130;16.844;2024-03-25T15:41:01;0.40;;;0.20;;
77148;SDS011;66122;47.130;16.844;2024-03-25T15:51:05;0.70;;;0.70;;
77148;SDS011;66122;47.130;16.844;2024-03-25T16:01:07;0.57;;;0.45;;
77148;SDS011;66122;47.130;16.844;2024-03-25T16:11:17;0.50;;;0.40;;
77148;SDS011;66122;47.130;16.844;2024-03-25T16:21:19;0.50;;;0.40;;
77148;SDS011;66122;47.130;16.844;2024-03-25T16:31:21;0.50;;;0.30;;
77148;SDS011;66122;47.130;16.844;2024-03-25T16:41:23;0.40;;;0.25;;
77148;SDS011;66122;47.130;16.844;2024-03-25T16:51:24;0.40;;;0.20;;
77148;SDS011;66122;47.130;16.844;2024-03-25T17:01:26;0.43;;;0.30;;
77148;SDS011;66122;47.130;16.844;2024-03-25T17:11:27;0.50;;;0.40;;
77148;SDS011;66122;47.130;16.844;2024-03-25T17:21:30;0.40;;;0.30;;
77148;SDS011;66122;47.130;16.844;2024-03-25T17:31:32;0.40;;;0.30;;
77148;SDS011;66122;47.130;16.844;2024-03-25T17:41:33;0.30;;;0.20;;
77148;SDS011;66122;47.130;16.844;2024-03-25T17:51:35;0.40;;;0.30;;
77148;SDS011;66122;47.130;16.844;2024-03-25T18:01:36;0.40;;;0.20;;
77148;SDS011;66122;47.130;16.844;2024-03-25T18:11:38;0.40;;;0.30;;
77148;SDS011;66122;47.130;16.844;2024-03-25T18:21:40;0.30;;;0.10;;
77148;SDS011;66122;47.130;16.844;2024-03-25T18:31:41;0.30;;;0.20;;
77148;SDS011;66122;47.130;16.844;2024-03-25T18:41:43;0.30;;;0.20;;
77148;SDS011;66122;47.130;16.844;2024-03-25T18:51:44;0.40;;;0.30;;
77148;SDS011;66122;47.130;16.844;2024-03-25T19:01:46;0.20;;;0.10;;
77148;SDS011;66122;47.130;16.844;2024-03-25T19:11:48;0.20;;;0.10;;
77148;SDS011;66122;47.130;16.844;2024-03-25T19:21:50;0.40;;;0.20;;
77148;SDS011;66122;47.130;16.844;2024-03-25T19:31:51;0.40;;;0.20;;
77148;SDS011;66122;47.130;16.844;2024-03-25T19:41:55;0.30;;;0.20;;
77148;SDS011;66122;47.130;16.844;2024-03-25T19:51:56;0.33;;;0.20;;
77148;SDS011;66122;47.130;16.844;2024-03-25T20:01:59;0.30;;;0.10;;
77148;SDS011;66122;47.130;16.844;2024-03-25T20:12:01;0.40;;;0.20;;
77148;SDS011;66122;47.130;16.844;2024-03-25T20:22:02;0.20;;;0.10;;
77148;SDS011;66122;47.130;16.844;2024-03-25T20:32:04;0.30;;;0.20;;
77148;SDS011;66122;47.130;16.844;2024-03-25T20:42:06;0.30;;;0.10;;
77148;SDS011;66122;47.130;16.844;2024-03-25T20:52:08;0.30;;;0.20;;
77148;SDS011;66122;47.130;16.844;2024-03-25T21:02:10;0.30;;;0.10;;
77148;SDS011;66122;47.130;16.844;2024-03-25T21:12:12;0.30;;;0.20;;
77148;SDS011;66122;47.130;16.844;2024-03-25T21:22:13;0.20;;;0.10;;
77148;SDS011;66122;47.130;16.844;2024-03-25T21:32:15;0.20;;;0.10;;
77148;SDS011;66122;47.130;16.844;2024-03-25T21:42:17;0.20;;;0.10;;
77148;SDS011;66122;47.130;16.844;2024-03-25T21:52:18;0.30;;;0.17;;
77148;SDS011;66122;47.130;16.844;2024-03-25T22:02:20;0.30;;;0.20;;
77148;SDS011;66122;47.130;16.844;2024-03-25T22:12:21;0.30;;;0.20;;
77148;SDS011;66122;47.130;16.844;2024-03-25T22:22:23;0.20;;;0.10;;
77148;SDS011;66122;47.130;16.844;2024-03-25T22:32:24;0.40;;;0.20;;
77148;SDS011;66122;47.130;16.844;2024-03-25T22:42:26;0.30;;;0.17;;
77148;SDS011;66122;47.130;16.844;2024-03-25T22:52:27;0.30;;;0.10;;
77148;SDS011;66122;47.130;16.844;2024-03-25T23:02:29;0.20;;;0.10;;
77148;SDS011;66122;47.130;16.844;2024-03-25T23:12:31;0.30;;;0.10;;
77148;SDS011;66122;47.130;16.844;2024-03-25T23:22:32;0.20;;;0.10;;
77148;SDS011;66122;47.130;16.844;2024-03-25T23:32:34;0.30;;;0.10;;
77148;SDS011;66122;47.130;16.844;2024-03-25T23:42:35;0.30;;;0.20;;
77148;SDS011;66122;47.130;16.844;2024-03-25T23:52:36;0.30;;;0.20;;
